Time,TemperatureF,DewpointF,PressureIn,WindDirection,WindDirectionDegrees,WindSpeedMPH,WindSpeedGustMPH,Humidity,HourlyPrecipIn,Conditions,Clouds,dailyrainin,SoftwareType,DateUTC
2013-10-20 00:02:00,71.4,27.0,30.00,NW,307,4.0,-999.0,19,-99.99,,,0.01,weatherlink.com 1.10,2013-10-20 07:02:00,
2013-10-20 00:13:00,71.7,26.0,30.00,NW,307,1.0,-999.0,18,-99.99,,,0.01,weatherlink.com 1.10,2013-10-20 07:13:00,
2013-10-20 00:43:00,71.9,26.0,29.99,NW,307,0.0,-999.0,18,-99.99,,,0.01,weatherlink.com 1.10,2013-10-20 07:43:00,
2013-10-20 02:28:00,71.3,28.0,29.98,NW,307,0.0,-999.0,20,-99.99,,,0.01,weatherlink.com 1.10,2013-10-20 09:28:00,
2013-10-20 02:56:00,70.9,29.0,29.97,NW,307,0.0,-999.0,21,-99.99,,,0.01,weatherlink.com 1.10,2013-10-20 09:56:00,
2013-10-20 04:10:00,70.2,26.0,29.95,NW,307,0.0,-999.0,19,-99.99,,,0.01,weatherlink.com 1.10,2013-10-20 11:10:00,
2013-10-20 04:53:00,70.9,27.0,29.95,NW,307,0.0,-999.0,19,-99.99,,,0.01,weatherlink.com 1.10,2013-10-20 11:53:00,
2013-10-20 04:58:00,70.8,26.0,29.95,NW,307,0.0,-999.0,19,-99.99,,,0.01,weatherlink.com 1.10,2013-10-20 11:58:00,
2013-10-20 05:13:00,70.2,26.0,29.95,NW,307,0.0,-999.0,19,-99.99,,,0.01,weatherlink.com 1.10,2013-10-20 12:13:00,
2013-10-20 05:33:00,69.6,25.0,29.95,NW,307,0.0,-999.0,19,-99.99,,,0.01,weatherlink.com 1.10,2013-10-20 12:33:00,
2013-10-20 06:09:00,68.9,26.0,29.95,NW,307,0.0,-999.0,20,-99.99,,,0.01,weatherlink.com 1.10,2013-10-20 13:09:00,
2013-10-20 06:29:00,68.6,27.0,29.95,NW,307,0.0,-999.0,21,-99.99,,,0.01,weatherlink.com 1.10,2013-10-20 13:29:00,
2013-10-20 06:44:00,69.2,26.0,29.96,NW,307,0.0,-999.0,20,-99.99,,,0.01,weatherlink.com 1.10,2013-10-20 13:44:00,
2013-10-20 07:58:00,70.8,26.0,29.97,NW,307,0.0,-999.0,19,-99.99,,,0.01,weatherlink.com 1.10,2013-10-20 14:58:00,
2013-10-20 08:13:00,70.3,28.0,29.98,NW,307,0.0,-999.0,21,-99.99,,,0.01,weatherlink.com 1.10,2013-10-20 15:13:00,
2013-10-20 08:28:00,70.8,26.0,29.98,NW,307,0.0,-999.0,19,-99.99,,,0.01,weatherlink.com 1.10,2013-10-20 15:28:00,
2013-10-20 09:31:00,71.8,35.0,29.98,NW,307,0.0,-999.0,26,-99.99,,,0.00,weatherlink.com 1.10,2013-10-20 16:31:00,
2013-10-20 09:59:00,73.0,36.0,29.98,NW,307,0.0,-999.0,26,-99.99,,,0.00,weatherlink.com 1.10,2013-10-20 16:59:00,
2013-10-20 11:28:00,75.3,37.0,29.98,NW,307,0.0,-999.0,25,-99.99,,,0.00,weatherlink.com 1.10,2013-10-20 18:28:00,
2013-10-20 13:48:00,76.1,45.0,29.94,WNW,286,1.0,-999.0,33,-99.99,,,0.00,weatherlink.com 1.10,2013-10-20 20:48:00,
2013-10-20 14:14:00,76.2,32.0,29.93,WNW,285,0.0,-999.0,20,-99.99,,,0.00,weatherlink.com 1.10,2013-10-20 21:14:00,
2013-10-20 14:28:00,75.6,38.0,29.93,WNW,285,1.0,-999.0,26,-99.99,,,0.00,weatherlink.com 1.10,2013-10-20 21:28:00,
2013-10-20 14:47:00,75.2,48.0,29.93,WNW,285,2.0,-999.0,38,-99.99,,,0.00,weatherlink.com 1.10,2013-10-20 21:47:00,
2013-10-20 14:58:00,74.1,32.0,29.92,WNW,285,0.0,-999.0,21,-99.99,,,0.00,weatherlink.com 1.10,2013-10-20 21:58:00,
2013-10-20 15:23:00,74.9,41.0,29.92,WNW,287,2.0,-999.0,30,-99.99,,,0.00,weatherlink.com 1.10,2013-10-20 22:23:00,
2013-10-20 15:29:00,75.2,41.0,29.92,WNW,286,1.0,-999.0,29,-99.99,,,0.00,weatherlink.com 1.10,2013-10-20 22:29:00,
2013-10-20 15:45:00,75.3,46.0,29.92,WNW,286,0.0,-999.0,36,-99.99,,,0.00,weatherlink.com 1.10,2013-10-20 22:45:00,
2013-10-20 16:13:00,74.8,47.0,29.91,WNW,286,0.0,-999.0,37,-99.99,,,0.00,weatherlink.com 1.10,2013-10-20 23:13:00,
2013-10-20 16:58:00,71.1,36.0,29.91,WNW,286,0.0,-999.0,28,-99.99,,,0.00,weatherlink.com 1.10,2013-10-20 23:58:00,
2013-10-20 17:43:00,71.6,20.0,29.90,WNW,286,0.0,-999.0,14,-99.99,,,0.00,weatherlink.com 1.10,2013-10-21 00:43:00,
2013-10-20 18:00:00,72.0,18.0,29.91,WNW,286,0.0,-999.0,13,-99.99,,,0.00,weatherlink.com 1.10,2013-10-21 01:00:00,
2013-10-20 18:13:00,71.5,18.0,29.91,WNW,286,0.0,-999.0,13,-99.99,,,0.00,weatherlink.com 1.10,2013-10-21 01:13:00,
2013-10-20 18:40:00,69.4,20.0,29.91,WNW,286,0.0,-999.0,15,-99.99,,,0.00,weatherlink.com 1.10,2013-10-21 01:40:00,
2013-10-20 19:30:00,69.8,13.0,29.93,WNW,286,0.0,-999.0,11,-99.99,,,0.00,weatherlink.com 1.10,2013-10-21 02:30:00,
2013-10-20 20:28:00,68.1,9.0,29.93,WNW,286,0.0,-999.0,10,-99.99,,,0.00,weatherlink.com 1.10,2013-10-21 03:28:00,
2013-10-20 20:44:00,67.9,9.0,29.93,WNW,286,0.0,-999.0,10,-99.99,,,0.00,weatherlink.com 1.10,2013-10-21 03:44:00,
2013-10-20 21:13:00,68.3,14.0,29.94,WNW,286,0.0,-999.0,12,-99.99,,,0.00,weatherlink.com 1.10,2013-10-21 04:13:00,
2013-10-20 21:28:00,68.6,22.0,29.94,WNW,286,0.0,-999.0,17,-99.99,,,0.00,weatherlink.com 1.10,2013-10-21 04:28:00,
2013-10-20 21:43:00,68.3,22.0,29.94,WNW,286,0.0,-999.0,17,-99.99,,,0.00,weatherlink.com 1.10,2013-10-21 04:43:00,
2013-10-20 22:13:00,68.1,44.0,29.95,WNW,286,0.0,-999.0,42,-99.99,,,0.00,weatherlink.com 1.10,2013-10-21 05:13:00,
2013-10-20 22:28:00,67.7,41.0,29.95,WNW,286,0.0,-999.0,38,-99.99,,,0.00,weatherlink.com 1.10,2013-10-21 05:28:00,
2013-10-20 22:43:00,67.6,21.0,29.94,WNW,286,0.0,-999.0,17,-99.99,,,0.00,weatherlink.com 1.10,2013-10-21 05:43:00,
2013-10-20 22:58:00,68.0,25.0,29.94,WNW,289,0.0,-999.0,20,-99.99,,,0.00,weatherlink.com 1.10,2013-10-21 05:58:00,
2013-10-20 23:13:00,67.7,32.0,29.94,WNW,289,0.0,-999.0,27,-99.99,,,0.00,weatherlink.com 1.10,2013-10-21 06:13:00,
2013-10-20 23:28:00,67.3,44.0,29.94,WNW,289,0.0,-999.0,43,-99.99,,,0.00,weatherlink.com 1.10,2013-10-21 06:28:00,
2013-10-20 23:43:00,66.9,44.0,29.94,WNW,289,0.0,-999.0,43,-99.99,,,0.00,weatherlink.com 1.10,2013-10-21 06:43:00,
2013-10-20 23:58:00,66.9,44.0,29.94,WNW,289,0.0,-999.0,43,-99.99,,,0.00,weatherlink.com 1.10,2013-10-21 06:58:00,